Time;durP1;ratioP1;P1;durP2;ratioP2;P2;SDS_P1;SDS_P2;PMS_P1;PMS_P2;Temp;Humidity;BMP_temperature;BMP_pressure;BME280_temperature;BME280_humidity;BME280_pressure;Samples;Min_cycle;Max_cycle;Signal;HPM_P1;HPM_P2
2023/08/05 00:00:11;;;;;;;5.88;3.03;;;;;;;15.18;100.00;101768.13;6254410;22;20017;-75
2023/08/05 00:02:37;;;;;;;3.45;2.83;;;;;;;15.12;100.00;101759.91;6280653;22;20023;-75
2023/08/05 00:05:06;;;;;;;3.08;2.78;;;;;;;15.14;100.00;101756.78;6281225;22;20012;-74
2023/08/05 00:07:32;;;;;;;3.40;2.80;;;;;;;15.13;100.00;101756.03;6279809;22;20099;-75
2023/08/05 00:09:59;;;;;;;5.35;3.28;;;;;;;15.14;100.00;101759.47;6281101;22;20021;-75
2023/08/05 00:12:26;;;;;;;4.95;2.88;;;;;;;15.14;100.00;101754.84;6280566;22;20088;-75
2023/08/05 00:14:52;;;;;;;6.53;3.50;;;;;;;15.15;100.00;101752.91;6281047;22;20245;-75
2023/08/05 00:17:19;;;;;;;4.53;3.10;;;;;;;15.17;100.00;101751.28;6280567;22;20430;-75
2023/08/05 00:19:45;;;;;;;3.22;2.95;;;;;;;15.16;100.00;101749.78;6281356;22;20016;-75
2023/08/05 00:22:12;;;;;;;3.45;3.15;;;;;;;15.14;100.00;101751.41;6253291;22;20016;-75
2023/08/05 00:24:40;;;;;;;5.30;2.90;;;;;;;15.14;100.00;101740.69;6280615;22;20012;-75
2023/08/05 00:27:06;;;;;;;3.15;2.90;;;;;;;15.09;100.00;101736.66;6281213;22;20079;-75
2023/08/05 00:29:33;;;;;;;3.20;2.83;;;;;;;15.11;100.00;101744.25;6280736;22;20027;-74
2023/08/05 00:32:00;;;;;;;4.28;3.30;;;;;;;15.11;100.00;101736.97;6281129;22;20008;-74
2023/08/05 00:34:26;;;;;;;5.93;3.30;;;;;;;15.11;100.00;101739.66;6252918;22;20039;-75
2023/08/05 00:36:53;;;;;;;3.25;2.95;;;;;;;15.09;100.00;101738.59;6280315;22;20013;-74
2023/08/05 00:39:19;;;;;;;3.00;2.80;;;;;;;15.08;100.00;101735.19;6280360;22;20020;-74
2023/08/05 00:41:46;;;;;;;5.28;2.67;;;;;;;15.07;100.00;101731.00;6253704;22;20038;-74
2023/08/05 00:44:12;;;;;;;3.00;2.83;;;;;;;15.05;100.00;101733.38;6253786;22;20043;-74
2023/08/05 00:46:39;;;;;;;4.03;3.00;;;;;;;15.04;100.00;101725.78;6280430;22;20044;-74
2023/08/05 00:49:06;;;;;;;4.93;3.08;;;;;;;15.00;100.00;101721.31;6253573;22;20035;-74
2023/08/05 00:51:33;;;;;;;3.90;3.50;;;;;;;14.98;100.00;101712.22;6251982;22;20458;-74
2023/08/05 00:54:01;;;;;;;3.47;3.08;;;;;;;14.97;100.00;101721.47;6253295;22;20086;-74
2023/08/05 00:56:28;;;;;;;3.65;3.15;;;;;;;14.95;100.00;101710.44;6280247;22;20016;-74
2023/08/05 00:58:55;;;;;;;7.75;3.63;;;;;;;14.95;100.00;101713.13;6280842;22;20016;-74
2023/08/05 01:01:21;;;;;;;3.53;3.08;;;;;;;14.93;100.00;101707.44;6280222;22;20099;-74
2023/08/05 01:03:48;;;;;;;5.30;3.15;;;;;;;14.93;100.00;101699.41;6281263;22;20401;-74
2023/08/05 01:06:16;;;;;;;4.28;2.95;;;;;;;14.95;100.00;101699.72;6280452;22;20016;-74
2023/08/05 01:08:43;;;;;;;3.58;3.10;;;;;;;14.95;100.00;101697.03;6227788;22;20436;-74
2023/08/05 01:11:11;;;;;;;3.53;3.22;;;;;;;14.95;100.00;101691.66;6253543;22;20095;-74
2023/08/05 01:13:39;;;;;;;5.30;3.60;;;;;;;14.95;100.00;101692.41;6280409;22;20012;-74
2023/08/05 01:16:06;;;;;;;4.88;3.40;;;;;;;14.95;100.00;101689.72;6253654;22;20122;-75
2023/08/05 01:18:36;;;;;;;8.43;3.42;;;;;;;14.92;100.00;101687.94;6226981;22;20024;-76
2023/08/05 01:21:06;;;;;;;3.58;3.28;;;;;;;14.93;100.00;101694.03;6253189;22;20425;-76
2023/08/05 01:23:49;;;;;;;3.70;3.35;;;;;;;14.95;100.00;101691.66;6280316;22;20070;-76
2023/08/05 01:26:16;;;;;;;3.92;3.53;;;;;;;14.92;100.00;101682.56;6280995;22;20630;-75
2023/08/05 01:28:45;;;;;;;4.18;3.50;;;;;;;14.91;100.00;101688.38;6280460;22;20059;-75
2023/08/05 01:31:14;;;;;;;3.72;3.45;;;;;;;14.88;100.00;101692.69;6280996;22;20432;-76
2023/08/05 01:33:42;;;;;;;11.63;3.78;;;;;;;14.90;100.00;101689.56;6279644;22;20434;-75
2023/08/05 01:36:08;;;;;;;4.07;3.65;;;;;;;14.91;100.00;101689.13;6280748;22;20013;-76
2023/08/05 01:38:35;;;;;;;4.97;3.65;;;;;;;14.93;100.00;101686.00;6252542;22;20047;-76
2023/08/05 01:41:02;;;;;;;4.43;3.70;;;;;;;14.92;100.00;101687.94;6228158;22;20103;-75
2023/08/05 01:43:28;;;;;;;6.25;3.58;;;;;;;14.92;100.00;101687.19;6280300;22;20016;-76
2023/08/05 01:45:56;;;;;;;8.38;3.67;;;;;;;14.90;100.00;101679.59;6280865;22;20012;-75
2023/08/05 01:48:22;;;;;;;5.25;3.63;;;;;;;14.91;100.00;101681.09;6279309;22;20078;-74
2023/08/05 01:50:49;;;;;;;3.72;3.42;;;;;;;14.89;100.00;101680.03;6280353;22;20438;-73
2023/08/05 01:53:15;;;;;;;10.23;3.95;;;;;;;14.84;100.00;101680.63;6280823;22;20047;-74
2023/08/05 01:55:42;;;;;;;3.60;3.35;;;;;;;14.77;100.00;101678.25;6252683;22;20497;-74
2023/08/05 01:58:09;;;;;;;3.30;3.10;;;;;;;14.74;100.00;101679.91;6253446;22;20020;-74
2023/08/05 02:00:35;;;;;;;4.10;3.70;;;;;;;14.73;100.00;101689.13;6252653;22;20017;-73
2023/08/05 02:03:02;;;;;;;6.03;3.60;;;;;;;14.65;100.00;101680.63;6252447;22;20016;-74
2023/08/05 02:05:29;;;;;;;6.60;3.70;;;;;;;14.63;100.00;101687.63;6252367;22;20044;-74
2023/08/05 02:07:56;;;;;;;3.72;3.20;;;;;;;14.65;100.00;101685.25;6253445;22;20024;-74
2023/08/05 02:10:22;;;;;;;6.80;3.10;;;;;;;14.64;100.00;101678.38;6279789;22;20469;-74
2023/08/05 02:12:49;;;;;;;4.03;3.63;;;;;;;14.62;100.00;101680.75;6281410;22;20012;-74
2023/08/05 02:15:15;;;;;;;4.95;3.45;;;;;;;14.59;100.00;101674.34;6281766;22;20012;-74
2023/08/05 02:17:42;;;;;;;4.13;3.72;;;;;;;14.58;100.00;101674.81;6280852;22;20020;-74
2023/08/05 02:20:10;;;;;;;3.97;3.67;;;;;;;14.58;100.00;101670.19;6281882;22;20421;-74
2023/08/05 02:22:37;;;;;;;4.45;4.05;;;;;;;14.58;100.00;101670.19;6281160;22;20023;-74
2023/08/05 02:25:04;;;;;;;4.63;4.25;;;;;;;14.54;100.00;101671.53;6281650;22;20070;-74
2023/08/05 02:27:30;;;;;;;5.38;3.95;;;;;;;14.48;100.00;101675.97;6253288;22;20020;-74
2023/08/05 02:29:58;;;;;;;4.85;3.72;;;;;;;14.46;100.00;101672.97;6254395;22;20027;-74
2023/08/05 02:32:25;;;;;;;4.32;3.85;;;;;;;14.42;100.00;101669.69;6280449;22;20067;-74
2023/08/05 02:34:52;;;;;;;8.07;3.60;;;;;;;14.39;100.00;101662.53;6281623;22;20012;-75
2023/08/05 02:37:18;;;;;;;3.90;3.60;;;;;;;14.37;100.00;101662.25;6253627;22;20071;-74
2023/08/05 02:39:45;;;;;;;5.70;3.83;;;;;;;14.35;100.00;101666.09;6254312;22;20438;-74
2023/08/05 02:42:12;;;;;;;5.03;3.70;;;;;;;14.33;100.00;101659.69;6254442;22;20020;-74
2023/08/05 02:44:38;;;;;;;4.18;3.50;;;;;;;14.31;100.00;101660.16;6281165;22;20036;-74
2023/08/05 02:47:05;;;;;;;3.90;3.60;;;;;;;14.30;100.00;101664.00;6281215;22;20413;-74
2023/08/05 02:49:32;;;;;;;4.18;3.60;;;;;;;14.31;100.00;101659.41;6253299;22;20484;-74
2023/08/05 02:51:59;;;;;;;7.22;4.13;;;;;;;14.33;100.00;101663.13;6253845;22;20043;-74
2023/08/05 02:54:25;;;;;;;4.05;3.63;;;;;;;14.33;100.00;101662.38;6280845;22;20434;-74
2023/08/05 02:56:52;;;;;;;3.80;3.60;;;;;;;14.34;100.00;101661.94;6254157;22;20032;-75
2023/08/05 02:59:19;;;;;;;3.92;3.65;;;;;;;14.34;100.00;101655.84;6281066;22;20016;-74
2023/08/05 03:01:45;;;;;;;3.95;3.55;;;;;;;14.34;100.00;101656.59;6253654;22;20026;-74
2023/08/05 03:04:13;;;;;;;3.80;3.60;;;;;;;14.34;100.00;101653.91;6281537;22;20421;-74
2023/08/05 03:06:39;;;;;;;4.85;4.13;;;;;;;14.32;100.00;101652.84;6280699;22;20016;-74
2023/08/05 03:09:06;;;;;;;5.15;4.10;;;;;;;14.31;100.00;101646.00;6254009;22;20024;-75
2023/08/05 03:11:34;;;;;;;4.00;3.70;;;;;;;14.33;100.00;101646.31;6280876;22;20438;-75
2023/08/05 03:14:02;;;;;;;5.57;3.90;;;;;;;14.32;100.00;101634.09;6253667;22;20059;-74
2023/08/05 03:16:28;;;;;;;4.03;3.83;;;;;;;14.30;100.00;101629.19;6252645;22;20024;-75
2023/08/05 03:19:03;;;;;;;6.75;3.95;;;;;;;14.30;100.00;101621.16;6281596;22;20058;-75
2023/08/05 03:21:31;;;;;;;5.70;4.10;;;;;;;14.30;100.00;101620.41;6253496;22;20462;-75
2023/08/05 03:23:59;;;;;;;4.43;4.05;;;;;;;14.29;100.00;101616.25;6253717;22;20028;-75
2023/08/05 03:26:27;;;;;;;4.53;4.22;;;;;;;14.28;100.00;101602.09;6252996;22;20033;-75
2023/08/05 03:28:58;;;;;;;;;;;;;;;14.28;100.00;101594.06;6229907;22;20016;-75
2023/08/05 03:31:27;;;;;;;6.05;4.70;;;;;;;14.24;100.00;101596.16;6253368;22;20367;-74
2023/08/05 03:33:54;;;;;;;5.38;4.25;;;;;;;14.25;100.00;101592.28;6253873;22;20541;-75
2023/08/05 03:36:21;;;;;;;4.78;4.47;;;;;;;14.23;100.00;101594.66;6253185;22;20439;-75
2023/08/05 03:38:48;;;;;;;7.63;4.40;;;;;;;14.23;100.00;101591.97;6281450;22;20012;-74
2023/08/05 03:41:14;;;;;;;5.03;4.55;;;;;;;14.23;100.00;101586.63;6253929;22;20043;-74
2023/08/05 03:43:41;;;;;;;4.75;4.45;;;;;;;14.24;100.00;101582.75;6252827;22;20023;-74
2023/08/05 03:46:07;;;;;;;4.50;4.20;;;;;;;14.24;100.00;101590.78;6253911;22;20025;-74
2023/08/05 03:48:34;;;;;;;4.93;4.53;;;;;;;14.21;100.00;101580.22;6227866;22;20048;-75
2023/08/05 03:51:01;;;;;;;4.50;4.10;;;;;;;14.19;100.00;101585.28;6281296;22;20091;-75
2023/08/05 03:53:27;;;;;;;7.03;4.20;;;;;;;14.18;100.00;101586.47;6253364;22;20016;-75
2023/08/05 03:55:54;;;;;;;11.20;4.60;;;;;;;14.18;100.00;101584.53;6254014;22;20546;-74
2023/08/05 03:58:23;;;;;;;4.85;4.45;;;;;;;14.19;100.00;101588.69;6252566;22;20523;-74
2023/08/05 04:00:51;;;;;;;12.90;4.38;;;;;;;14.22;100.00;101584.38;6281305;22;20022;-75
2023/08/05 04:03:18;;;;;;;4.53;4.13;;;;;;;14.22;100.00;101571.75;6252962;22;20401;-75
2023/08/05 04:05:46;;;;;;;6.40;4.28;;;;;;;14.23;100.00;101575.16;6253890;22;20096;-75
2023/08/05 04:08:13;;;;;;;8.02;4.47;;;;;;;14.22;100.00;101569.06;6228373;22;20024;-75
2023/08/05 04:10:40;;;;;;;5.20;4.35;;;;;;;14.22;100.00;101576.34;6280522;22;20464;-75
2023/08/05 04:13:11;;;;;;;5.65;4.63;;;;;;;14.17;100.00;101572.31;6252916;22;20092;-75
2023/08/05 04:15:39;;;;;;;5.18;4.20;;;;;;;14.14;100.00;101578.56;6253412;22;20013;-75
2023/08/05 04:18:06;;;;;;;4.60;4.30;;;;;;;14.15;100.00;101563.25;6253810;22;20044;-75
2023/08/05 04:20:35;;;;;;;5.45;4.90;;;;;;;14.17;100.00;101560.88;6253087;22;20458;-75
2023/08/05 04:23:04;;;;;;;4.68;4.38;;;;;;;14.16;100.00;101560.13;6228526;22;20028;-75
2023/08/05 04:25:32;;;;;;;4.40;4.10;;;;;;;14.16;100.00;101556.72;6280521;22;20022;-75
2023/08/05 04:27:59;;;;;;;5.43;4.72;;;;;;;14.16;100.00;101554.78;6280589;22;20019;-74
2023/08/05 04:30:25;;;;;;;7.70;4.45;;;;;;;14.17;100.00;101542.88;6280625;22;20430;-74
2023/08/05 04:32:52;;;;;;;5.25;4.75;;;;;;;14.15;100.00;101541.81;6281023;22;20012;-74
2023/08/05 04:35:18;;;;;;;7.93;4.70;;;;;;;14.17;100.00;101542.13;6280159;22;20020;-75
2023/08/05 04:37:45;;;;;;;5.15;4.40;;;;;;;14.19;100.00;101543.19;6281404;22;20016;-75
2023/08/05 04:40:12;;;;;;;4.95;4.47;;;;;;;14.20;100.00;101531.28;6281384;22;20012;-75
2023/08/05 04:42:38;;;;;;;5.45;4.65;;;;;;;14.20;100.00;101531.28;6279965;22;20012;-75
2023/08/05 04:45:05;;;;;;;4.82;4.50;;;;;;;14.21;100.00;101532.75;6281298;22;20023;-75
2023/08/05 04:47:32;;;;;;;5.93;4.97;;;;;;;14.21;100.00;101526.66;6280381;22;20440;-75
2023/08/05 04:49:59;;;;;;;4.72;4.43;;;;;;;14.22;100.00;101518.19;6280919;22;20027;-75
2023/08/05 04:52:27;;;;;;;4.72;4.43;;;;;;;14.24;100.00;101521.16;6280097;22;20472;-75
2023/08/05 04:54:54;;;;;;;5.00;4.22;;;;;;;14.25;100.00;101519.22;6281252;22;20020;-75
2023/08/05 04:57:21;;;;;;;4.20;3.92;;;;;;;14.24;100.00;101518.50;6279646;22;20039;-75
2023/08/05 04:59:47;;;;;;;5.18;4.78;;;;;;;14.23;100.00;101527.72;6281101;22;20457;-75
2023/08/05 05:02:14;;;;;;;5.45;4.68;;;;;;;14.23;100.00;101527.72;6280453;22;20091;-75
2023/08/05 05:04:40;;;;;;;6.78;5.00;;;;;;;14.21;100.00;101527.41;6253093;22;20172;-75
2023/08/05 05:07:07;;;;;;;8.02;5.15;;;;;;;14.24;100.00;101518.50;6254216;22;20016;-75
2023/08/05 05:09:33;;;;;;;6.65;5.13;;;;;;;14.24;100.00;101513.13;6280306;22;20016;-75
2023/08/05 05:12:00;;;;;;;6.55;5.60;;;;;;;14.23;100.00;101513.56;6280208;22;20016;-75
2023/08/05 05:14:27;;;;;;;6.13;5.63;;;;;;;14.24;100.00;101512.38;6280189;22;20083;-75
2023/08/05 05:16:53;;;;;;;7.05;5.07;;;;;;;14.25;100.00;101519.22;6280861;22;20466;-74
2023/08/05 05:19:20;;;;;;;6.65;5.78;;;;;;;14.26;100.00;101518.03;6280260;22;20023;-75
2023/08/05 05:21:46;;;;;;;9.13;5.68;;;;;;;14.27;100.00;101508.81;6280780;22;20078;-75
2023/08/05 05:24:13;;;;;;;5.63;5.13;;;;;;;14.29;100.00;101509.88;6281076;22;20016;-75
2023/08/05 05:26:39;;;;;;;6.03;5.53;;;;;;;14.32;100.00;101508.22;6252572;22;20442;-75
2023/08/05 05:29:06;;;;;;;7.60;5.72;;;;;;;14.34;100.00;101501.22;6253884;22;20036;-75
2023/08/05 05:31:33;;;;;;;10.70;5.53;;;;;;;14.38;100.00;101501.09;6280054;22;20016;-75
2023/08/05 05:33:59;;;;;;;7.03;5.25;;;;;;;14.37;100.00;101502.28;6280929;22;20091;-75
2023/08/05 05:36:26;;;;;;;5.63;5.20;;;;;;;14.38;100.00;101498.41;6280100;22;20146;-75
2023/08/05 05:38:52;;;;;;;5.05;4.65;;;;;;;14.38;100.00;101501.09;6280898;22;20047;-75
2023/08/05 05:41:19;;;;;;;5.70;5.18;;;;;;;14.39;100.00;101496.47;6252414;22;20016;-75
2023/08/05 05:43:45;;;;;;;6.18;5.53;;;;;;;14.39;100.00;101494.53;6280765;22;20446;-75
2023/08/05 05:46:14;;;;;;;6.63;5.40;;;;;;;14.40;100.00;101484.53;6279915;22;20012;-75
2023/08/05 05:48:41;;;;;;;7.95;5.03;;;;;;;14.42;100.00;101484.88;6252418;22;20031;-75
2023/08/05 05:51:07;;;;;;;11.55;5.35;;;;;;;14.41;100.00;101489.47;6280360;22;20020;-75
2023/08/05 05:53:34;;;;;;;13.25;5.50;;;;;;;14.38;100.00;101487.69;6252850;22;20426;-75
2023/08/05 05:56:00;;;;;;;8.13;5.20;;;;;;;14.39;100.00;101480.41;6280077;22;20016;-75
2023/08/05 05:58:27;;;;;;;9.55;5.18;;;;;;;14.44;100.00;101482.50;6280120;22;20019;-75
2023/08/05 06:00:55;;;;;;;5.80;5.30;;;;;;;14.47;100.00;101473.56;6280546;22;20023;-75
2023/08/05 06:03:22;;;;;;;6.22;5.60;;;;;;;14.51;100.00;101474.16;6279874;22;20403;-74
2023/08/05 06:05:50;;;;;;;6.05;5.47;;;;;;;14.56;100.00;101470.88;6253054;22;20055;-74
2023/08/05 06:08:17;;;;;;;9.05;5.88;;;;;;;14.60;100.00;101479.50;6280276;22;20012;-74
2023/08/05 06:10:44;;;;;;;8.75;6.30;;;;;;;14.60;100.00;101477.56;6279960;22;20428;-74
2023/08/05 06:13:11;;;;;;;6.47;5.90;;;;;;;14.59;100.00;101478.75;6253368;22;20016;-73
2023/08/05 06:15:41;;;;;;;8.88;6.68;;;;;;;14.62;100.00;101471.75;6279946;22;20083;-74
2023/08/05 06:18:09;;;;;;;10.70;7.10;;;;;;;14.63;100.00;101482.03;6253489;22;20042;-74
2023/08/05 06:20:36;;;;;;;9.23;7.72;;;;;;;14.65;100.00;101468.19;6279278;22;20328;-74
2023/08/05 06:23:03;;;;;;;13.35;8.18;;;;;;;14.66;100.00;101469.69;6279784;22;20027;-74
2023/08/05 06:25:29;;;;;;;11.32;8.23;;;;;;;14.68;100.00;101472.66;6279786;22;20104;-75
2023/08/05 06:27:56;;;;;;;11.02;9.25;;;;;;;14.75;100.00;101471.59;6280381;22;20091;-74
2023/08/05 06:30:23;;;;;;;12.30;10.15;;;;;;;14.74;100.00;101475.47;6279478;22;20108;-74
2023/08/05 06:32:50;;;;;;;18.25;11.20;;;;;;;14.83;100.00;101475.44;6280290;22;20051;-75
2023/08/05 06:35:16;;;;;;;18.13;10.63;;;;;;;14.85;100.00;101473.78;6280276;22;20063;-74
2023/08/05 06:37:44;;;;;;;20.02;11.13;;;;;;;14.90;100.00;101483.16;6279732;22;20017;-75
2023/08/05 06:40:11;;;;;;;20.85;11.75;;;;;;;14.93;100.00;101480.31;6280044;22;20024;-74
2023/08/05 06:42:37;;;;;;;21.38;12.05;;;;;;;14.99;100.00;101472.41;6279478;22;20420;-75
2023/08/05 06:45:05;;;;;;;16.90;12.70;;;;;;;15.05;100.00;101469.88;6280127;22;20017;-75
2023/08/05 06:47:31;;;;;;;19.13;12.30;;;;;;;15.12;100.00;101469.53;6252303;22;20430;-74
2023/08/05 06:49:58;;;;;;;18.05;12.55;;;;;;;15.17;100.00;101474.31;6280019;22;20444;-75
2023/08/05 06:52:25;;;;;;;19.17;12.55;;;;;;;15.27;100.00;101476.47;6278453;22;20020;-75
2023/08/05 06:54:51;;;;;;;16.17;12.90;;;;;;;15.33;100.00;101474.66;6252805;22;20036;-74
2023/08/05 06:57:18;;;;;;;20.27;12.18;;;;;;;15.41;100.00;101461.66;6279811;22;20066;-74
2023/08/05 06:59:45;;;;;;;15.63;12.85;;;;;;;15.50;100.00;101460.88;6281627;22;20086;-74
2023/08/05 07:02:12;;;;;;;16.38;12.27;;;;;;;15.53;100.00;101451.91;6281472;22;20020;-75
2023/08/05 07:04:39;;;;;;;16.15;12.27;;;;;;;15.60;100.00;101454.25;6280690;22;20043;-74
2023/08/05 07:07:05;;;;;;;15.90;12.52;;;;;;;15.66;100.00;101453.19;6253791;22;20013;-74
2023/08/05 07:09:32;;;;;;;17.83;12.63;;;;;;;15.70;100.00;101458.38;6280595;22;20564;-74
2023/08/05 07:11:59;;;;;;;16.20;11.43;;;;;;;15.77;100.00;101447.31;6254543;22;20469;-74
2023/08/05 07:14:26;;;;;;;17.63;11.80;;;;;;;15.94;100.00;101445.69;6253639;22;20087;-73
2023/08/05 07:16:52;;;;;;;15.88;12.32;;;;;;;16.04;100.00;101454.41;6281567;22;20012;-72
2023/08/05 07:19:19;;;;;;;13.27;11.68;;;;;;;16.34;100.00;101450.59;6280664;22;20018;-72
2023/08/05 07:21:45;;;;;;;15.68;12.40;;;;;;;16.80;100.00;101449.38;6280991;22;21182;-73
2023/08/05 07:24:12;;;;;;;12.75;11.50;;;;;;;17.11;100.00;101435.44;6281488;22;20520;-74
2023/08/05 07:26:39;;;;;;;16.35;12.18;;;;;;;17.30;100.00;101436.66;6280715;22;20390;-74
2023/08/05 07:29:05;;;;;;;14.90;12.05;;;;;;;17.55;100.00;101424.53;6281372;22;20062;-74
2023/08/05 07:31:32;;;;;;;12.13;10.98;;;;;;;17.76;99.89;101419.88;6280896;22;20047;-74
2023/08/05 07:33:58;;;;;;;13.75;11.35;;;;;;;17.92;97.00;101422.78;6228892;22;20040;-73
2023/08/05 07:36:27;;;;;;;10.90;9.90;;;;;;;17.84;95.20;101419.00;6279956;22;20449;-74
2023/08/05 07:38:54;;;;;;;12.30;9.75;;;;;;;17.60;95.47;101419.19;6281284;22;20070;-73
2023/08/05 07:41:23;;;;;;;13.25;9.65;;;;;;;17.51;96.37;101413.22;6280338;22;20020;-78
2023/08/05 07:43:50;;;;;;;10.98;9.90;;;;;;;17.42;94.37;101419.47;6281475;22;20048;-75
2023/08/05 07:46:19;;;;;;;11.73;9.95;;;;;;;17.51;95.19;101413.22;6253964;22;20012;-74
2023/08/05 07:48:50;;;;;;;10.73;9.65;;;;;;;17.76;93.99;101411.81;6280587;22;20016;-75
2023/08/05 07:51:18;;;;;;;9.90;9.07;;;;;;;17.98;92.29;101403.97;6279005;22;20017;-75
2023/08/05 07:53:48;;;;;;;10.73;9.55;;;;;;;18.10;92.84;101400.16;6279758;22;20013;-74
2023/08/05 07:56:15;;;;;;;10.00;9.00;;;;;;;18.25;90.50;101397.38;6279798;22;20063;-74
2023/08/05 07:58:45;;;;;;;9.93;9.02;;;;;;;18.36;91.22;101399.44;6251536;22;20020;-74
2023/08/05 08:01:17;;;;;;;13.18;8.75;;;;;;;18.42;90.64;101398.22;6279848;22;20177;-75
2023/08/05 08:03:45;;;;;;;10.05;8.18;;;;;;;18.38;89.15;101397.00;6253707;22;20022;-75
2023/08/05 08:06:15;;;;;;;9.45;8.18;;;;;;;18.30;90.01;101391.28;6280872;22;20012;-74
2023/08/05 08:08:44;;;;;;;9.32;8.38;;;;;;;18.37;90.33;101392.81;6254502;22;20024;-75
2023/08/05 08:11:11;;;;;;;9.25;8.15;;;;;;;18.45;89.94;101378.41;6281056;22;20488;-75
2023/08/05 08:13:39;;;;;;;11.23;8.82;;;;;;;18.35;89.14;101382.53;6280567;22;20512;-75
2023/08/05 08:16:06;;;;;;;9.93;9.02;;;;;;;18.22;90.05;101382.88;6280781;22;20016;-75
2023/08/05 08:18:32;;;;;;;13.93;8.48;;;;;;;18.20;90.46;101381.88;6280648;22;20012;-75
2023/08/05 08:20:59;;;;;;;9.15;8.20;;;;;;;18.23;91.49;101378.97;6253323;22;20441;-74
2023/08/05 08:23:25;;;;;;;8.30;7.70;;;;;;;18.41;88.50;101374.44;6252881;22;20777;-75
2023/08/05 08:25:52;;;;;;;9.75;7.80;;;;;;;18.32;87.42;101365.34;6253810;22;20075;-74
2023/08/05 08:28:19;;;;;;;7.90;7.20;;;;;;;18.32;86.20;101361.91;6227880;22;20016;-75
2023/08/05 08:30:56;;;;;;;7.47;6.65;;;;;;;18.77;86.64;101354.16;6281109;22;20122;-74
2023/08/05 08:33:25;;;;;;;7.40;6.80;;;;;;;19.03;84.75;101356.75;6280244;22;20024;-75
2023/08/05 08:35:52;;;;;;;7.82;6.90;;;;;;;19.20;81.50;101363.69;6253630;22;20012;-75
2023/08/05 08:38:20;;;;;;;8.70;6.43;;;;;;;19.46;80.26;101352.75;6280512;22;20420;-77
2023/08/05 08:40:50;;;;;;;7.38;6.70;;;;;;;19.77;79.60;101348.44;6281150;22;20017;-77
2023/08/05 08:43:21;;;;;;;9.20;7.20;;;;;;;19.94;77.33;101352.66;6281148;22;20517;-75
2023/08/05 08:45:51;;;;;;;7.32;5.95;;;;;;;20.06;77.53;101347.97;6281338;22;20016;-75
2023/08/05 08:48:18;;;;;;;6.40;5.85;;;;;;;19.90;76.22;101337.91;6280165;22;20413;-74
2023/08/05 08:50:51;;;;;;;7.05;5.57;;;;;;;19.76;76.05;101334.19;6280602;22;20082;-74
2023/08/05 08:53:20;;;;;;;6.10;5.47;;;;;;;19.93;75.81;101323.41;6280703;22;20017;-74
2023/08/05 08:55:47;;;;;;;5.68;5.18;;;;;;;20.13;77.20;101312.34;6280950;22;20453;-74
2023/08/05 08:58:14;;;;;;;7.45;5.72;;;;;;;20.08;75.61;101312.34;6253434;22;20023;-74
2023/08/05 09:00:41;;;;;;;5.55;5.05;;;;;;;20.33;74.55;101310.63;6280221;22;20016;-74
2023/08/05 09:03:09;;;;;;;5.00;4.55;;;;;;;20.33;74.79;101308.66;6280591;22;20179;-75
2023/08/05 09:05:52;;;;;;;7.80;4.50;;;;;;;20.42;73.75;101318.50;6280417;22;20042;-75
2023/08/05 09:08:19;;;;;;;4.90;4.60;;;;;;;20.45;73.22;101309.38;6280182;22;20012;-79
2023/08/05 09:10:46;;;;;;;4.50;4.20;;;;;;;20.59;71.69;101303.72;6280829;22;20020;-76
2023/08/05 09:13:16;;;;;;;5.13;4.82;;;;;;;20.43;71.35;101309.88;6280768;22;20083;-75
2023/08/05 09:15:45;;;;;;;4.35;4.05;;;;;;;20.54;73.38;101292.91;6281169;22;20525;-75
2023/08/05 09:18:12;;;;;;;4.45;4.10;;;;;;;20.34;71.48;101293.19;6280208;22;20080;-76
2023/08/05 09:20:38;;;;;;;4.72;4.32;;;;;;;20.20;73.11;101289.50;6279923;22;20454;-78
2023/08/05 09:23:08;;;;;;;4.68;4.28;;;;;;;20.31;72.69;101292.19;6280736;22;20012;-75
2023/08/05 09:25:45;;;;;;;8.25;5.45;;;;;;;20.12;73.23;101294.66;6279788;22;20043;-75
2023/08/05 09:28:12;;;;;;;5.28;4.78;;;;;;;20.09;74.43;101284.09;6280915;22;20048;-74
2023/08/05 09:30:38;;;;;;;5.20;4.90;;;;;;;20.10;72.85;101286.31;6280043;22;20027;-74
2023/08/05 09:33:05;;;;;;;5.20;4.70;;;;;;;20.13;73.21;101269.09;6280442;22;20113;-75
2023/08/05 09:35:32;;;;;;;5.30;4.95;;;;;;;20.05;72.70;101276.22;6280448;22;20091;-74
2023/08/05 09:38:00;;;;;;;5.28;4.88;;;;;;;20.14;73.91;101270.56;6280999;22;20020;-75
2023/08/05 09:40:29;;;;;;;5.55;5.10;;;;;;;20.16;72.66;101268.13;6252544;22;20031;-75
2023/08/05 09:43:02;;;;;;;5.32;4.93;;;;;;;20.22;71.84;101257.31;6280549;22;20012;-75
2023/08/05 09:45:32;;;;;;;4.97;4.57;;;;;;;20.37;70.12;101251.63;6227673;22;20438;-75
2023/08/05 09:48:10;;;;;;;8.85;5.03;;;;;;;20.45;71.56;101260.72;6280020;22;20018;-76
2023/08/05 09:50:38;;;;;;;5.22;4.82;;;;;;;20.46;70.53;101251.38;6277996;22;20588;-75
2023/08/05 09:53:07;;;;;;;5.75;5.25;;;;;;;20.41;70.13;101244.75;6280105;22;20024;-75
2023/08/05 09:55:36;;;;;;;9.35;5.10;;;;;;;20.24;70.50;101244.78;6279536;22;20020;-75
2023/08/05 09:58:07;;;;;;;6.47;5.00;;;;;;;20.13;70.73;101244.03;6252782;22;20016;-75
2023/08/05 10:00:40;;;;;;;5.45;5.00;;;;;;;20.13;72.59;101233.97;6278874;22;20021;-76
2023/08/05 10:03:13;;;;;;;5.75;5.35;;;;;;;20.46;72.16;101235.88;6253536;22;20019;-76
2023/08/05 10:05:44;;;;;;;5.40;5.03;;;;;;;20.70;70.79;101226.47;6279545;22;20466;-75
2023/08/05 10:08:12;;;;;;;5.60;4.88;;;;;;;20.67;71.21;101228.22;6280489;22;20097;-76
2023/08/05 10:10:41;;;;;;;6.20;5.68;;;;;;;20.59;70.04;101222.56;6279115;22;20020;-76
2023/08/05 10:13:17;;;;;;;7.07;5.63;;;;;;;20.59;71.42;101227.97;6279787;22;20013;-75
2023/08/05 10:15:49;;;;;;;6.03;5.60;;;;;;;20.66;70.92;101218.63;6279823;22;20016;-75
2023/08/05 10:18:17;;;;;;;6.03;5.53;;;;;;;20.53;69.83;101218.41;6280366;22;20039;-75
2023/08/05 10:20:49;;;;;;;7.63;5.32;;;;;;;20.41;69.13;101203.44;6279940;22;20024;-76
2023/08/05 10:23:16;;;;;;;6.32;4.90;;;;;;;20.32;69.26;101201.75;6280429;22;20442;-78
2023/08/05 10:25:50;;;;;;;5.03;4.63;;;;;;;20.47;70.21;101196.06;6279929;22;20016;-76
2023/08/05 10:28:22;;;;;;;5.68;5.30;;;;;;;20.34;69.50;101190.44;6280238;22;20043;-78
2023/08/05 10:30:50;;;;;;;5.93;5.50;;;;;;;20.25;68.58;101189.47;6279473;22;20024;-76
2023/08/05 10:33:18;;;;;;;5.70;5.22;;;;;;;20.38;69.70;101174.72;6281041;22;20036;-76
2023/08/05 10:35:45;;;;;;;5.45;4.97;;;;;;;20.55;68.15;101172.69;6281579;22;20016;-76
2023/08/05 10:38:16;;;;;;;5.75;5.28;;;;;;;20.71;68.24;101177.28;6281825;22;20019;-77
2023/08/05 10:40:43;;;;;;;5.70;4.95;;;;;;;20.78;68.53;101170.63;6281513;22;20454;-76
2023/08/05 10:43:12;;;;;;;5.25;4.43;;;;;;;20.70;68.82;101156.88;6281880;22;20019;-75
2023/08/05 10:45:42;;;;;;;5.72;5.20;;;;;;;20.79;68.29;101156.59;6280135;22;20044;-75
2023/08/05 10:48:10;;;;;;;5.47;5.07;;;;;;;20.93;68.03;101163.63;6281622;22;20018;-76
2023/08/05 10:50:38;;;;;;;4.90;4.60;;;;;;;20.82;68.30;101152.13;6280655;22;20056;-75
2023/08/05 10:53:08;;;;;;;4.80;4.50;;;;;;;20.74;68.56;101151.94;6280906;22;20023;-77
2023/08/05 10:55:48;;;;;;;7.70;4.65;;;;;;;20.72;67.65;101150.97;6253120;22;20469;-77
2023/08/05 10:58:21;;;;;;;4.93;4.53;;;;;;;20.50;68.79;101144.41;6281556;22;20095;-76
2023/08/05 11:00:58;;;;;;;4.43;4.13;;;;;;;20.46;68.65;101138.53;6281453;22;20020;-77
2023/08/05 11:03:37;;;;;;;5.90;4.00;;;;;;;20.46;69.01;101125.03;6280331;22;20012;-77
2023/08/05 11:06:05;;;;;;;4.50;4.10;;;;;;;20.50;68.67;101128.19;6253925;22;20020;-77
2023/08/05 11:08:33;;;;;;;5.00;3.60;;;;;;;20.46;68.74;101127.72;6253315;22;20027;-77
2023/08/05 11:11:00;;;;;;;6.63;4.55;;;;;;;20.15;71.57;101142.31;6280972;22;20480;-77
2023/08/05 11:13:31;;;;;;;4.22;3.97;;;;;;;19.85;73.52;101158.38;6252630;22;20016;-76
2023/08/05 11:16:11;;;;;;;4.80;4.40;;;;;;;19.52;78.69;101166.50;6281179;22;20529;-76
2023/08/05 11:18:43;;;;;;;3.78;3.47;;;;;;;19.22;81.30;101163.50;6280635;22;20324;-76